createdAt,value
2018-10-03T00:04:01.123Z,6.3
2018-10-03T00:09:01.121Z,5.8
2018-10-03T00:14:06.098Z,5.2
2018-10-03T00:19:01.137Z,4.8
2018-10-03T00:24:01.134Z,5.0
2018-10-03T00:34:06.105Z,5.8
2018-10-03T00:39:06.119Z,5.6
2018-10-03T00:44:01.098Z,5.8
2018-10-03T00:49:01.135Z,6.2
2018-10-03T00:54:01.135Z,5.8
2018-10-03T00:59:01.134Z,5.6
2018-10-03T01:04:01.137Z,5.1
2018-10-03T01:09:01.141Z,4.9
2018-10-03T01:14:01.144Z,4.5
2018-10-03T01:19:01.098Z,4.4
2018-10-03T01:24:06.099Z,4.0
2018-10-03T01:34:06.095Z,3.8
2018-10-03T01:39:01.137Z,3.6
2018-10-03T01:49:06.106Z,4.1
2018-10-03T01:59:01.146Z,4.0
2018-10-03T02:04:01.133Z,4.7
2018-10-03T02:09:06.097Z,5.5
2018-10-03T02:14:01.126Z,5.7
2018-10-03T02:19:01.131Z,6.3
2018-10-03T02:24:01.140Z,6.6
2018-10-03T02:29:01.141Z,6.2
2018-10-03T02:34:01.130Z,6.0
2018-10-03T02:39:01.090Z,6.4
2018-10-03T02:49:01.100Z,6.2
2018-10-03T02:54:01.100Z,6.6
2018-10-03T02:59:01.100Z,6.7
2018-10-03T03:04:01.109Z,6.5
2018-10-03T03:09:01.186Z,6.0
2018-10-03T03:14:01.090Z,6.2
2018-10-03T03:19:01.124Z,6.5
2018-10-03T03:24:01.099Z,5.9
2018-10-03T03:29:01.093Z,5.4
2018-10-03T03:34:01.100Z,5.8
2018-10-03T03:44:01.100Z,5.1
2018-10-03T03:49:01.103Z,4.6
2018-10-03T03:54:01.122Z,5.2
2018-10-03T03:59:01.098Z,5.0
2018-10-03T04:04:01.094Z,4.3
2018-10-03T04:09:01.100Z,4.0
2018-10-03T04:14:01.162Z,4.1
2018-10-03T04:19:01.100Z,3.2
2018-10-03T04:24:01.100Z,2.8
2018-10-03T04:29:01.115Z,3.1
2018-10-03T04:34:01.103Z,3.4
2018-10-03T04:39:01.091Z,3.6
2018-10-03T04:44:01.094Z,4.0
2018-10-03T04:49:01.137Z,3.9
2018-10-03T04:54:01.165Z,4.3
2018-10-03T04:59:01.103Z,4.0
2018-10-03T05:04:01.428Z,3.9
2018-10-03T05:09:01.106Z,4.0
2018-10-03T05:14:01.091Z,4.4
2018-10-03T05:24:01.094Z,5.2
2018-10-03T05:29:01.219Z,6.0
2018-10-03T05:34:06.098Z,5.2
2018-10-03T05:39:01.104Z,5.5
2018-10-03T05:44:01.088Z,4.9
2018-10-03T05:49:01.086Z,4.6
2018-10-03T05:54:01.089Z,3.8
2018-10-03T05:59:01.240Z,4.0
2018-10-03T06:04:01.094Z,3.5
2018-10-03T06:09:01.102Z,3.6
2018-10-03T06:14:01.172Z,3.2
2018-10-03T06:19:01.101Z,3.3
2018-10-03T06:29:01.096Z,4.2
2018-10-03T06:34:01.101Z,4.0
2018-10-03T06:39:01.100Z,4.6
2018-10-03T06:49:01.278Z,5.1
2018-10-03T07:04:01.106Z,4.9
2018-10-03T07:10:01.125Z,4.8
2018-10-03T07:15:01.126Z,4.2
2018-10-03T07:20:06.144Z,3.4
2018-10-03T07:30:06.171Z,3.3
2018-10-03T07:40:01.120Z,3.1
2018-10-03T07:45:01.127Z,3.5
2018-10-03T07:50:01.141Z,3.8
2018-10-03T07:55:06.101Z,3.4
2018-10-03T08:00:06.169Z,3.4
2018-10-03T08:05:01.128Z,3.6
2018-10-03T08:10:06.197Z,3.4
2018-10-03T08:15:06.111Z,3.4
2018-10-03T08:20:01.121Z,3.8
2018-10-03T08:25:01.098Z,3.9
2018-10-03T08:30:01.109Z,4.7
2018-10-03T08:35:01.095Z,4.3
2018-10-03T08:40:01.106Z,4.7
2018-10-03T08:45:01.105Z,4.5
2018-10-03T08:50:01.146Z,4.3
2018-10-03T08:55:01.140Z,4.0
2018-10-03T09:00:06.120Z,5.0
2018-10-03T09:05:06.111Z,4.6
2018-10-03T09:10:01.132Z,4.9
2018-10-03T09:15:01.128Z,5.6
2018-10-03T09:20:06.097Z,6.2
2018-10-03T09:25:01.142Z,5.6
2018-10-03T09:30:01.213Z,5.4
2018-10-03T09:40:01.173Z,5.0
2018-10-03T09:45:01.093Z,4.0
2018-10-03T09:55:01.111Z,4.1
2018-10-03T10:00:01.098Z,3.7
2018-10-03T10:10:01.164Z,4.1
2018-10-03T10:15:01.120Z,3.9
2018-10-03T10:20:01.109Z,4.0
2018-10-03T10:25:01.103Z,4.5
2018-10-03T10:30:01.101Z,5.2
2018-10-03T10:35:01.101Z,4.9
2018-10-03T10:40:01.265Z,5.2
2018-10-03T10:45:01.097Z,5.1
2018-10-03T10:50:01.096Z,4.8
2018-10-03T10:55:01.103Z,4.1
2018-10-03T11:00:01.172Z,4.3
2018-10-03T11:05:02.117Z,4.2
2018-10-03T11:10:01.091Z,3.9
2018-10-03T11:15:01.092Z,3.7
2018-10-03T11:20:01.092Z,3.6
2018-10-03T11:30:01.101Z,3.2
2018-10-03T11:35:01.104Z,3.4
2018-10-03T11:40:02.184Z,3.7
2018-10-03T11:45:01.094Z,3.8
2018-10-03T11:50:01.160Z,3.6
2018-10-03T11:55:01.099Z,3.8
2018-10-03T12:00:01.094Z,3.6
2018-10-03T12:05:01.099Z,3.4
2018-10-03T12:10:01.102Z,3.6
2018-10-03T12:15:01.108Z,3.6
2018-10-03T12:25:06.209Z,3.5
2018-10-03T12:30:01.102Z,3.3
2018-10-03T12:35:01.091Z,3.4
2018-10-03T12:45:01.146Z,3.5
2018-10-03T12:50:01.101Z,3.8
2018-10-03T12:55:01.100Z,4.1
2018-10-03T13:00:01.171Z,3.7
2018-10-03T13:05:01.102Z,3.6
2018-10-03T13:10:01.097Z,3.4
2018-10-03T13:15:01.108Z,3.0
2018-10-03T13:25:01.092Z,2.8
2018-10-03T13:30:01.112Z,2.5
2018-10-03T13:35:01.102Z,2.9
2018-10-03T13:40:01.104Z,3.1
2018-10-03T13:45:01.145Z,2.9
2018-10-03T13:50:01.108Z,3.3
2018-10-03T13:55:01.097Z,3.8
2018-10-03T14:00:01.103Z,3.6
2018-10-03T14:05:01.099Z,3.4
2018-10-03T14:15:01.111Z,3.0
2018-10-03T14:25:01.102Z,2.8
2018-10-03T14:30:01.104Z,2.8
2018-10-03T14:35:01.092Z,2.6
2018-10-03T14:40:01.092Z,2.8
2018-10-03T14:45:01.102Z,2.5
2018-10-03T14:50:01.427Z,2.2
2018-10-03T14:55:01.097Z,2.4
2018-10-03T15:00:01.103Z,2.6
2018-10-03T15:05:01.103Z,2.5
2018-10-03T15:10:01.102Z,2.7
2018-10-03T15:15:01.112Z,2.7
2018-10-03T15:25:01.113Z,2.6
2018-10-03T15:30:01.116Z,2.8
2018-10-03T15:35:01.111Z,2.6
2018-10-03T15:40:01.101Z,2.8
2018-10-03T15:45:01.102Z,2.9
2018-10-03T15:50:01.106Z,3.0
2018-10-03T15:55:06.223Z,2.9
2018-10-03T16:01:01.101Z,3.0
2018-10-03T16:06:01.102Z,4.0
2018-10-03T16:16:01.095Z,3.9
2018-10-03T16:21:01.103Z,4.0
2018-10-03T16:26:01.109Z,3.9
2018-10-03T16:31:01.172Z,3.0
2018-10-03T16:41:01.124Z,3.5
2018-10-03T16:46:01.122Z,3.4
2018-10-03T16:51:06.095Z,3.6
2018-10-03T16:56:06.096Z,3.5
2018-10-03T17:01:01.224Z,3.3
2018-10-03T17:06:01.099Z,2.8
2018-10-03T17:11:01.105Z,2.7
2018-10-03T17:16:01.102Z,2.8
2018-10-03T17:21:01.127Z,3.0
2018-10-03T17:26:01.092Z,3.1
2018-10-03T17:31:01.094Z,3.2
2018-10-03T17:36:01.097Z,5.0
2018-10-03T17:41:01.244Z,5.2
2018-10-03T17:56:01.121Z,5.3
2018-10-03T18:01:01.100Z,3.6
2018-10-03T18:06:01.087Z,3.4
2018-10-03T18:21:01.097Z,3.2
2018-10-03T18:26:01.097Z,3.7
2018-10-03T18:36:01.105Z,4.0
2018-10-03T18:46:01.088Z,4.1
2018-10-03T18:51:01.093Z,3.5
2018-10-03T18:56:01.122Z,3.7
2018-10-03T19:01:06.094Z,3.1
2018-10-03T19:06:06.143Z,3.2
2018-10-03T19:16:01.171Z,3.4
2018-10-03T19:21:01.145Z,3.2
2018-10-03T19:26:01.126Z,3.1
2018-10-03T19:31:01.124Z,3.4
2018-10-03T19:36:06.097Z,3.6
2018-10-03T19:41:01.136Z,4.4
2018-10-03T19:46:01.140Z,5.4
2018-10-03T19:51:01.106Z,6.6
2018-10-03T19:56:01.105Z,7.5
2018-10-03T20:01:01.131Z,9.1
2018-10-03T20:06:06.095Z,8.9
2018-10-03T20:11:06.160Z,7.7
2018-10-03T20:16:01.098Z,6.7
2018-10-03T20:21:06.232Z,5.4
2018-10-03T20:26:01.102Z,3.6
2018-10-03T20:31:01.107Z,2.8
2018-10-03T20:36:01.229Z,3.2
2018-10-03T20:41:06.104Z,3.1
2018-10-03T20:47:01.091Z,3.4
2018-10-03T20:52:01.096Z,3.1
2018-10-03T20:57:01.094Z,3.3
2018-10-03T21:02:01.096Z,3.1
2018-10-03T21:07:01.100Z,3.0
2018-10-03T21:12:01.100Z,2.7
2018-10-03T21:17:01.102Z,2.8
2018-10-03T21:22:01.110Z,2.9
2018-10-03T21:32:01.094Z,3.5
2018-10-03T21:37:06.097Z,3.8
2018-10-03T21:42:01.096Z,4.5
2018-10-03T21:47:01.100Z,4.4
2018-10-03T21:52:01.107Z,5.0
2018-10-03T21:57:06.100Z,4.7
2018-10-03T22:02:01.103Z,4.6
2018-10-03T22:07:01.102Z,4.1
2018-10-03T22:12:01.105Z,4.0
2018-10-03T22:18:01.104Z,3.7
2018-10-03T22:28:01.094Z,4.2
2018-10-03T22:38:01.100Z,4.1
2018-10-03T22:43:01.115Z,3.8
2018-10-03T22:48:01.103Z,3.6
2018-10-03T22:53:01.092Z,3.2
2018-10-03T22:58:01.125Z,3.0
2018-10-03T23:08:01.100Z,2.8
2018-10-03T23:13:01.101Z,2.7
2018-10-03T23:18:06.103Z,2.6
2018-10-03T23:23:01.107Z,2.7
2018-10-03T23:33:06.098Z,2.6
2018-10-03T23:38:06.097Z,3.3
2018-10-03T23:43:06.098Z,3.2
2018-10-03T23:53:01.670Z,3.0
2018-10-03T23:58:01.108Z,3.2
